Time;durP1;ratioP1;P1;durP2;ratioP2;P2;SDS_P1;SDS_P2;PMS_P1;PMS_P2;Temp;Humidity;BMP_temperature;BMP_pressure;BME280_temperature;BME280_humidity;BME280_pressure;Samples;Min_cycle;Max_cycle;Signal;HPM_P1;HPM_P2
2022/10/25 00:01:30;;;;;;;9.27;2.20;;;14.50;99.90;;;;;;4994258;28;20233;-70
2022/10/25 00:03:56;;;;;;;10.97;2.33;;;14.50;99.90;;;;;;4994331;28;20270;-70
2022/10/25 00:06:22;;;;;;;7.90;2.10;;;14.50;99.90;;;;;;4993750;28;20647;-71
2022/10/25 00:08:48;;;;;;;7.87;2.27;;;14.50;99.90;;;;;;4993885;28;20241;-71
2022/10/25 00:11:23;;;;;;;4.13;2.13;;;14.40;99.90;;;;;;4993988;28;20200;-71
2022/10/25 00:13:50;;;;;;;5.33;2.27;;;14.40;99.90;;;;;;4993665;28;20194;-70
2022/10/25 00:16:20;;;;;;;8.67;2.10;;;14.40;99.90;;;;;;4993880;28;20167;-71
2022/10/25 00:18:45;;;;;;;5.47;1.70;;;14.40;99.90;;;;;;4993805;28;20628;-70
2022/10/25 00:21:11;;;;;;;7.73;2.10;;;14.30;99.90;;;;;;4994109;28;20171;-71
2022/10/25 00:23:43;;;;;;;6.60;1.90;;;14.30;99.90;;;;;;4993763;28;20187;-70
2022/10/25 00:26:10;;;;;;;6.63;2.00;;;14.30;99.90;;;;;;4993856;28;20167;-69
2022/10/25 00:28:39;;;;;;;8.23;2.10;;;14.30;99.90;;;;;;4993036;28;20234;-71
2022/10/25 00:31:07;;;;;;;7.00;2.40;;;14.30;99.90;;;;;;4993910;28;20175;-70
2022/10/25 00:33:34;;;;;;;7.10;1.90;;;14.30;99.90;;;;;;4993926;28;20178;-70
2022/10/25 00:36:24;;;;;;;6.03;2.30;;;14.30;99.90;;;;;;4993573;28;20179;-71
2022/10/25 00:38:50;;;;;;;6.50;1.80;;;14.30;99.90;;;;;;4990993;28;20260;-69
2022/10/25 00:41:19;;;;;;;8.53;2.10;;;14.40;99.90;;;;;;4993529;28;20231;-71
2022/10/25 00:43:53;;;;;;;5.23;2.20;;;14.40;99.90;;;;;;4993479;28;20175;-72
2022/10/25 00:46:30;;;;;;;9.13;2.10;;;14.40;99.90;;;;;;4993627;28;20170;-70
2022/10/25 00:49:04;;;;;;;8.10;2.47;;;14.50;99.90;;;;;;4993672;28;20674;-70
2022/10/25 00:51:44;;;;;;;3.57;1.70;;;14.50;99.90;;;;;;4996304;28;20170;-71
2022/10/25 00:54:13;;;;;;;6.87;2.00;;;14.50;99.90;;;;;;4997513;28;20182;-71
2022/10/25 00:56:42;;;;;;;7.43;2.03;;;14.50;99.90;;;;;;4997113;28;20576;-71
2022/10/25 00:59:12;;;;;;;5.63;1.87;;;14.50;99.90;;;;;;4997478;28;20206;-70
2022/10/25 01:01:41;;;;;;;4.63;1.90;;;14.50;99.90;;;;;;4997649;28;20175;-70
2022/10/25 01:04:10;;;;;;;5.47;2.40;;;14.50;99.90;;;;;;4997176;28;20186;-70
2022/10/25 01:06:48;;;;;;;7.60;2.13;;;14.50;99.90;;;;;;4997331;28;20230;-70
2022/10/25 01:09:26;;;;;;;5.37;1.70;;;14.60;99.90;;;;;;4997210;28;20687;-70
2022/10/25 01:11:52;;;;;;;5.60;1.87;;;14.60;99.90;;;;;;4996907;28;20230;-70
2022/10/25 01:14:21;;;;;;;6.23;2.07;;;14.60;99.90;;;;;;4997170;28;20171;-70
2022/10/25 01:16:58;;;;;;;7.93;2.07;;;14.60;99.90;;;;;;4997355;28;20234;-71
2022/10/25 01:19:51;;;;;;;9.23;2.13;;;14.60;99.90;;;;;;4996947;28;20249;-70
2022/10/25 01:22:39;;;;;;;6.70;2.00;;;14.60;99.90;;;;;;4997003;28;20219;-71
2022/10/25 01:25:32;;;;;;;6.07;2.40;;;14.60;99.90;;;;;;4996613;28;20710;-70
2022/10/25 01:28:35;;;;;;;9.43;2.30;;;14.60;99.90;;;;;;4996983;28;20210;-71
2022/10/25 01:31:50;;;;;;;9.27;2.00;;;14.60;99.90;;;;;;4996787;28;20187;-70
2022/10/25 01:34:44;;;;;;;5.67;2.10;;;14.50;99.90;;;;;;4996722;28;20644;-70
2022/10/25 01:37:39;;;;;;;6.37;2.10;;;14.50;99.90;;;;;;4993584;28;20187;-70
2022/10/25 01:40:18;;;;;;;5.90;1.90;;;14.50;99.90;;;;;;4996399;28;20215;-69
2022/10/25 01:43:33;;;;;;;5.77;2.00;;;14.50;99.90;;;;;;4996565;28;20209;-70
2022/10/25 01:46:17;;;;;;;9.83;2.30;;;14.50;99.90;;;;;;4980710;28;20187;-69
2022/10/25 01:48:47;;;;;;;6.60;1.97;;;14.50;99.90;;;;;;4996671;28;20299;-71
2022/10/25 01:51:17;;;;;;;6.50;2.23;;;14.50;99.90;;;;;;4996589;28;20627;-71
2022/10/25 01:53:47;;;;;;;6.93;2.37;;;14.50;99.90;;;;;;4996182;28;20190;-69
2022/10/25 01:56:33;;;;;;;7.57;1.77;;;14.50;99.90;;;;;;4996290;28;20234;-70
2022/10/25 01:59:15;;;;;;;8.77;2.20;;;14.50;99.90;;;;;;4996356;28;20175;-70
2022/10/25 02:01:53;;;;;;;7.00;2.13;;;14.50;99.90;;;;;;4995920;28;20183;-70
2022/10/25 02:04:33;;;;;;;9.13;2.10;;;14.50;99.90;;;;;;4996195;28;20190;-70
2022/10/25 02:07:24;;;;;;;5.87;1.90;;;14.60;99.90;;;;;;4996128;28;20171;-70
2022/10/25 02:09:59;;;;;;;5.93;2.10;;;14.60;99.90;;;;;;4993189;28;20306;-70
2022/10/25 02:12:31;;;;;;;6.93;2.03;;;14.70;99.90;;;;;;4996084;28;20201;-71
2022/10/25 02:15:39;;;;;;;6.27;2.07;;;14.70;99.90;;;;;;4996032;28;20262;-70
2022/10/25 02:18:13;;;;;;;8.33;2.50;;;14.70;99.90;;;;;;4974580;28;20179;-69
2022/10/25 02:20:44;;;;;;;8.47;2.40;;;14.70;99.90;;;;;;4974417;28;20195;-70
2022/10/25 02:23:10;;;;;;;8.93;2.20;;;14.60;99.90;;;;;;4973886;28;20239;-71
2022/10/25 02:25:39;;;;;;;7.07;2.07;;;14.60;99.90;;;;;;4974283;28;20168;-69
2022/10/25 02:28:07;;;;;;;8.43;2.07;;;14.50;99.90;;;;;;4974208;28;20192;-70
2022/10/25 02:30:35;;;;;;;5.07;1.97;;;14.50;99.90;;;;;;4954796;28;20232;-71
2022/10/25 02:33:01;;;;;;;4.10;1.90;;;14.50;99.90;;;;;;4954815;28;20529;-70
2022/10/25 02:35:29;;;;;;;4.43;1.70;;;14.50;99.90;;;;;;4955061;28;20191;-70
2022/10/25 02:37:54;;;;;;;7.67;2.23;;;14.50;99.90;;;;;;4954398;29;20254;-70
2022/10/25 02:40:20;;;;;;;6.33;2.00;;;14.50;99.90;;;;;;4954528;28;20173;-70
2022/10/25 02:42:46;;;;;;;8.43;2.07;;;14.50;99.90;;;;;;4954394;28;20239;-70
2022/10/25 02:45:12;;;;;;;6.30;2.10;;;14.50;99.90;;;;;;4954656;28;20757;-69
2022/10/25 02:47:37;;;;;;;7.83;2.00;;;14.60;99.90;;;;;;4954492;29;20180;-70
2022/10/25 02:50:06;;;;;;;6.13;2.07;;;14.60;99.90;;;;;;4954391;28;20286;-70
2022/10/25 02:52:32;;;;;;;7.00;1.73;;;14.50;99.90;;;;;;4954018;29;20676;-70
2022/10/25 02:54:57;;;;;;;5.87;2.20;;;14.50;99.90;;;;;;4955138;28;20223;-70
2022/10/25 02:57:23;;;;;;;9.73;2.30;;;14.40;99.90;;;;;;4956699;29;20510;-71
2022/10/25 02:59:52;;;;;;;7.53;2.07;;;14.30;99.90;;;;;;4956291;28;20181;-70
2022/10/25 03:02:17;;;;;;;6.33;2.23;;;14.20;99.90;;;;;;4956321;28;20207;-70
2022/10/25 03:04:43;;;;;;;8.80;2.40;;;14.30;99.90;;;;;;4956384;28;20205;-70
2022/10/25 03:07:08;;;;;;;7.07;2.23;;;14.30;99.90;;;;;;4956030;28;20585;-69
2022/10/25 03:09:37;;;;;;;6.27;2.10;;;14.30;99.90;;;;;;4955864;28;20208;-69
2022/10/25 03:12:02;;;;;;;7.27;2.20;;;14.20;99.90;;;;;;4955956;29;20176;-70
2022/10/25 03:14:28;;;;;;;7.33;2.30;;;14.30;99.90;;;;;;4954993;28;20192;-70
2022/10/25 03:16:54;;;;;;;5.63;2.10;;;14.30;99.90;;;;;;4956049;29;20165;-69
2022/10/25 03:19:19;;;;;;;5.43;2.07;;;14.30;99.90;;;;;;4955655;28;20271;-69
2022/10/25 03:21:45;;;;;;;8.77;1.93;;;14.30;99.90;;;;;;4955361;28;20165;-70
2022/10/25 03:24:10;;;;;;;16.10;2.57;;;14.20;99.90;;;;;;4955531;28;20251;-69
2022/10/25 03:26:36;;;;;;;8.60;2.10;;;14.20;99.90;;;;;;4955838;29;20211;-70
2022/10/25 03:29:01;;;;;;;7.80;2.67;;;14.30;99.90;;;;;;4968411;28;20750;-69
2022/10/25 03:31:27;;;;;;;7.80;2.80;;;14.30;99.90;;;;;;4994249;28;20167;-69
2022/10/25 03:33:53;;;;;;;9.13;2.60;;;14.30;99.90;;;;;;4994606;28;20655;-70
2022/10/25 03:36:18;;;;;;;6.40;2.37;;;14.30;99.90;;;;;;4993873;28;20178;-69
2022/10/25 03:38:44;;;;;;;7.37;2.30;;;14.20;99.90;;;;;;4994247;28;20266;-69
2022/10/25 03:41:09;;;;;;;11.23;2.80;;;14.20;99.90;;;;;;4994340;28;20175;-70
2022/10/25 03:43:35;;;;;;;9.70;2.57;;;14.20;99.90;;;;;;4994650;28;20620;-69
2022/10/25 03:46:00;;;;;;;9.23;2.70;;;14.20;99.90;;;;;;4994347;28;20183;-70
2022/10/25 03:48:26;;;;;;;7.93;2.90;;;14.10;99.90;;;;;;4993742;28;20187;-70
2022/10/25 03:50:53;;;;;;;11.57;2.90;;;14.00;99.90;;;;;;4993792;28;20190;-70
2022/10/25 03:53:22;;;;;;;6.87;2.80;;;14.00;99.90;;;;;;4993709;28;20290;-71
2022/10/25 03:55:48;;;;;;;13.20;3.10;;;14.00;99.90;;;;;;4993741;28;20175;-70
2022/10/25 03:58:14;;;;;;;7.93;2.93;;;14.00;99.90;;;;;;4993438;28;20167;-70
2022/10/25 04:00:40;;;;;;;9.37;2.73;;;14.00;99.90;;;;;;4993777;28;20538;-70
2022/10/25 04:03:05;;;;;;;6.90;2.87;;;14.00;99.90;;;;;;4992461;28;20171;-70
2022/10/25 04:05:31;;;;;;;11.73;3.20;;;14.00;99.90;;;;;;4993162;28;20195;-71
2022/10/25 04:07:58;;;;;;;9.13;3.53;;;14.00;99.90;;;;;;4993426;28;20199;-71
2022/10/25 04:10:24;;;;;;;12.03;3.20;;;14.00;99.90;;;;;;4993143;28;20282;-70
2022/10/25 04:12:53;;;;;;;10.73;3.50;;;14.10;99.90;;;;;;4993646;28;20202;-70
2022/10/25 04:15:18;;;;;;;9.53;3.53;;;14.10;99.90;;;;;;4993838;28;20250;-70
2022/10/25 04:17:48;;;;;;;9.80;3.40;;;14.10;99.90;;;;;;4993333;28;20254;-70
2022/10/25 04:20:16;;;;;;;7.57;3.30;;;14.10;99.90;;;;;;4993170;28;20175;-70
2022/10/25 04:22:42;;;;;;;12.30;3.43;;;14.20;99.90;;;;;;4993124;28;20171;-69
2022/10/25 04:25:10;;;;;;;6.37;3.50;;;14.10;99.90;;;;;;4992875;28;20179;-70
2022/10/25 04:27:36;;;;;;;11.93;3.70;;;14.10;99.90;;;;;;4992949;28;20623;-70
2022/10/25 04:30:02;;;;;;;6.63;3.40;;;14.20;99.90;;;;;;4993211;28;20320;-69
2022/10/25 04:32:27;;;;;;;9.73;3.47;;;14.20;99.90;;;;;;4993406;28;20179;-70
2022/10/25 04:34:53;;;;;;;11.93;3.43;;;14.20;99.90;;;;;;4993055;28;20249;-70
2022/10/25 04:37:19;;;;;;;8.73;2.90;;;14.30;99.90;;;;;;4993357;28;20187;-70
2022/10/25 04:39:45;;;;;;;7.47;3.23;;;14.30;99.90;;;;;;4993260;28;20724;-70
2022/10/25 04:42:13;;;;;;;9.47;3.73;;;14.30;99.90;;;;;;4992954;28;20258;-69
2022/10/25 04:44:38;;;;;;;12.37;3.30;;;14.30;99.90;;;;;;4992950;28;20250;-71
2022/10/25 04:47:04;;;;;;;11.30;3.60;;;14.30;99.90;;;;;;4993184;28;20665;-69
2022/10/25 04:49:29;;;;;;;7.80;3.00;;;14.30;99.90;;;;;;4992418;28;20246;-70
2022/10/25 04:51:56;;;;;;;10.47;3.30;;;14.40;99.90;;;;;;4992564;28;20519;-69
2022/10/25 04:54:22;;;;;;;6.30;3.03;;;14.30;99.90;;;;;;4993238;28;20191;-70
2022/10/25 04:56:47;;;;;;;9.47;3.20;;;14.30;99.90;;;;;;4993000;28;20171;-70
2022/10/25 04:59:22;;;;;;;8.33;2.77;;;14.30;99.90;;;;;;4993107;28;20250;-70
2022/10/25 05:01:47;;;;;;;9.43;3.37;;;14.30;99.90;;;;;;4992527;28;20198;-71
2022/10/25 05:04:13;;;;;;;7.97;3.30;;;14.30;99.90;;;;;;4991560;28;20186;-70
2022/10/25 05:06:39;;;;;;;7.30;2.90;;;14.30;99.90;;;;;;4992796;28;20602;-71
2022/10/25 05:09:04;;;;;;;7.57;3.40;;;14.30;99.90;;;;;;4992611;28;20214;-71
2022/10/25 05:11:31;;;;;;;8.57;3.40;;;14.30;99.90;;;;;;4992298;28;20632;-71
2022/10/25 05:13:57;;;;;;;9.50;3.80;;;14.20;99.90;;;;;;4992970;28;20273;-71
2022/10/25 05:16:23;;;;;;;7.83;3.43;;;14.20;99.90;;;;;;4991847;28;20623;-71
2022/10/25 05:18:53;;;;;;;7.87;3.57;;;14.20;99.90;;;;;;4991891;28;20190;-70
2022/10/25 05:21:25;;;;;;;9.83;3.50;;;14.20;99.90;;;;;;4992526;28;20175;-70
2022/10/25 05:23:50;;;;;;;11.53;3.97;;;14.30;99.90;;;;;;4992057;28;20187;-71
2022/10/25 05:26:18;;;;;;;7.10;3.70;;;14.30;99.90;;;;;;4992128;28;20230;-70
2022/10/25 05:28:49;;;;;;;13.77;3.57;;;14.30;99.90;;;;;;4992341;28;20302;-71
2022/10/25 05:31:17;;;;;;;10.67;3.40;;;14.30;99.90;;;;;;4991685;28;20243;-70
2022/10/25 05:33:44;;;;;;;9.43;4.00;;;14.40;99.90;;;;;;4992635;28;20270;-70
2022/10/25 05:36:10;;;;;;;10.83;3.83;;;14.40;99.90;;;;;;4992056;28;20540;-70
2022/10/25 05:38:36;;;;;;;10.93;3.50;;;14.40;99.90;;;;;;4995811;28;20211;-71
2022/10/25 05:41:01;;;;;;;7.13;3.17;;;14.40;99.90;;;;;;4995212;28;20215;-70
2022/10/25 05:43:30;;;;;;;8.50;3.47;;;14.50;99.90;;;;;;4995410;28;20198;-70
2022/10/25 05:46:01;;;;;;;12.67;3.63;;;14.40;99.90;;;;;;4995943;28;20199;-71
2022/10/25 05:48:30;;;;;;;10.53;3.93;;;14.50;99.90;;;;;;4995493;28;20175;-70
2022/10/25 05:51:08;;;;;;;12.97;4.93;;;14.50;99.90;;;;;;4995299;28;20240;-71
2022/10/25 05:53:33;;;;;;;9.30;3.47;;;14.40;99.90;;;;;;4995592;28;20179;-70
2022/10/25 05:55:59;;;;;;;11.33;3.97;;;14.40;99.90;;;;;;4995098;28;20182;-71
2022/10/25 05:58:25;;;;;;;9.50;3.50;;;14.40;99.90;;;;;;4994849;28;20227;-70
2022/10/25 06:00:50;;;;;;;12.40;3.60;;;14.40;99.90;;;;;;4994560;28;20195;-71
2022/10/25 06:03:16;;;;;;;15.37;3.60;;;14.40;99.90;;;;;;4994594;28;20179;-71
2022/10/25 06:05:44;;;;;;;13.83;3.30;;;14.40;99.90;;;;;;4995346;28;20619;-72
2022/10/25 06:08:10;;;;;;;9.40;3.17;;;14.30;99.90;;;;;;4995219;28;20222;-70
2022/10/25 06:10:35;;;;;;;8.57;3.30;;;14.40;99.90;;;;;;4994746;28;20207;-71
2022/10/25 06:13:01;;;;;;;13.60;3.77;;;14.50;99.90;;;;;;4994479;28;20168;-70
2022/10/25 06:15:26;;;;;;;11.77;3.20;;;14.40;99.90;;;;;;4995428;28;20497;-70
2022/10/25 06:17:52;;;;;;;12.50;2.93;;;14.30;99.90;;;;;;4994904;28;20163;-71
2022/10/25 06:20:20;;;;;;;12.33;3.37;;;14.20;99.90;;;;;;4994732;28;20511;-71
2022/10/25 06:22:46;;;;;;;12.60;3.30;;;14.30;99.90;;;;;;4994597;28;20178;-72
2022/10/25 06:25:15;;;;;;;9.47;2.80;;;14.30;99.90;;;;;;4994257;28;20179;-71
2022/10/25 06:27:40;;;;;;;7.77;3.00;;;14.30;99.90;;;;;;4994431;28;20190;-71
2022/10/25 06:30:06;;;;;;;12.13;3.00;;;14.30;99.90;;;;;;4994031;28;20231;-71
2022/10/25 06:32:32;;;;;;;13.67;3.23;;;14.30;99.90;;;;;;4994401;28;20179;-71
2022/10/25 06:34:57;;;;;;;8.60;2.87;;;14.30;99.90;;;;;;4994630;28;20172;-72
2022/10/25 06:37:23;;;;;;;15.20;3.30;;;14.20;99.90;;;;;;4994201;28;20186;-72
2022/10/25 06:39:49;;;;;;;7.57;3.13;;;14.10;99.90;;;;;;4994402;28;20171;-71
2022/10/25 06:42:17;;;;;;;7.53;2.50;;;14.10;99.90;;;;;;4993097;28;20184;-72
2022/10/25 06:44:42;;;;;;;7.97;2.50;;;14.20;99.90;;;;;;4980644;28;20190;-71
2022/10/25 06:47:08;;;;;;;10.87;2.87;;;14.20;99.90;;;;;;4993655;28;20490;-71
2022/10/25 06:49:34;;;;;;;11.53;2.93;;;14.20;99.90;;;;;;4983399;28;20282;-73
2022/10/25 06:51:59;;;;;;;11.57;2.97;;;14.20;99.90;;;;;;4974079;28;20179;-71
2022/10/25 06:54:25;;;;;;;11.60;2.90;;;14.40;99.90;;;;;;4973640;28;20172;-71
2022/10/25 06:56:54;;;;;;;14.87;2.93;;;14.40;99.90;;;;;;4974430;28;20190;-71
2022/10/25 06:59:19;;;;;;;10.47;2.67;;;14.50;99.90;;;;;;4974253;28;20287;-70
2022/10/25 07:01:46;;;;;;;7.17;2.83;;;14.50;99.90;;;;;;4984214;28;20258;-71
2022/10/25 07:04:11;;;;;;;5.93;2.23;;;14.60;99.90;;;;;;4992760;28;20531;-72
2022/10/25 07:06:37;;;;;;;7.07;2.57;;;14.70;99.90;;;;;;4992669;28;20175;-72
2022/10/25 07:09:11;;;;;;;8.53;2.53;;;14.80;99.90;;;;;;4993384;28;20541;-71
2022/10/25 07:11:38;;;;;;;9.83;2.87;;;15.00;99.90;;;;;;4992932;28;20171;-71
2022/10/25 07:14:03;;;;;;;13.30;3.00;;;15.50;99.90;;;;;;4993017;28;20623;-71
2022/10/25 07:16:29;;;;;;;8.50;2.50;;;15.90;99.90;;;;;;4993546;28;20217;-71
2022/10/25 07:19:00;;;;;;;8.50;2.40;;;16.40;99.90;;;;;;4993065;28;20643;-71
2022/10/25 07:21:26;;;;;;;8.83;2.50;;;16.50;99.90;;;;;;4993992;28;20179;-70
2022/10/25 07:23:52;;;;;;;10.87;3.03;;;16.50;99.90;;;;;;4993033;28;20538;-70
2022/10/25 07:26:23;;;;;;;6.80;2.87;;;16.60;99.90;;;;;;4993789;28;20251;-71
2022/10/25 07:28:50;;;;;;;13.57;3.40;;;16.60;99.90;;;;;;4992610;28;20242;-70
2022/10/25 07:31:19;;;;;;;8.30;2.65;;;16.50;99.90;;;;;;4994028;28;20171;-70
2022/10/25 07:33:46;;;;;;;6.80;2.70;;;16.30;99.90;;;;;;4993416;28;20175;-71
2022/10/25 07:36:11;;;;;;;12.60;3.40;;;16.30;99.90;;;;;;4992960;28;20259;-71
2022/10/25 07:38:37;;;;;;;7.60;2.87;;;16.20;99.90;;;;;;4981344;28;20196;-71
2022/10/25 07:41:03;;;;;;;11.77;3.00;;;16.00;99.90;;;;;;4971760;28;20172;-72
2022/10/25 07:43:29;;;;;;;12.13;2.83;;;15.90;99.90;;;;;;4973667;28;20283;-71
2022/10/25 07:45:55;;;;;;;10.87;3.00;;;15.70;99.90;;;;;;4973468;28;20707;-71
2022/10/25 07:48:21;;;;;;;6.13;2.80;;;15.60;99.90;;;;;;4974065;28;20191;-71
2022/10/25 07:50:47;;;;;;;9.40;2.97;;;15.70;99.90;;;;;;4972166;28;20717;-71
2022/10/25 07:53:13;;;;;;;10.23;3.30;;;15.90;99.90;;;;;;4973967;28;20176;-71
2022/10/25 07:55:38;;;;;;;10.47;2.70;;;15.90;99.90;;;;;;4973599;28;20168;-71
2022/10/25 07:58:06;;;;;;;6.50;2.53;;;16.00;99.90;;;;;;4972884;28;20215;-72
2022/10/25 08:00:34;;;;;;;8.40;2.83;;;15.90;99.90;;;;;;4973246;28;20172;-71
2022/10/25 08:03:00;;;;;;;8.87;2.80;;;15.80;99.90;;;;;;4973667;28;20330;-71
2022/10/25 08:05:25;;;;;;;12.23;2.80;;;15.80;99.90;;;;;;4972775;28;20209;-72
2022/10/25 08:07:51;;;;;;;7.27;2.90;;;15.70;99.90;;;;;;4973717;28;20176;-73
2022/10/25 08:10:19;;;;;;;8.23;2.63;;;15.60;99.90;;;;;;4973640;28;20215;-73
2022/10/25 08:12:45;;;;;;;11.93;2.90;;;15.60;99.90;;;;;;4971692;28;20594;-71
2022/10/25 08:15:11;;;;;;;11.70;2.83;;;15.70;99.90;;;;;;4973794;28;20535;-71
2022/10/25 08:17:37;;;;;;;7.77;2.80;;;15.60;99.90;;;;;;4973826;28;20195;-70
2022/10/25 08:20:03;;;;;;;9.80;2.70;;;15.80;99.90;;;;;;4973169;28;20609;-70
2022/10/25 08:22:28;;;;;;;7.87;2.60;;;16.40;99.90;;;;;;4973155;28;20172;-71
2022/10/25 08:24:54;;;;;;;7.30;2.67;;;17.50;99.90;;;;;;4973160;28;20192;-72
2022/10/25 08:27:19;;;;;;;6.53;2.25;;;18.40;99.90;;;;;;4973730;28;20164;-70
2022/10/25 08:29:45;;;;;;;8.88;2.90;;;19.40;99.90;;;;;;4973410;28;20590;-71
2022/10/25 08:32:11;;;;;;;9.18;3.33;;;20.30;99.90;;;;;;4972905;28;20339;-72
2022/10/25 08:34:36;;;;;;;10.20;2.80;;;21.10;99.90;;;;;;4973146;28;20188;-71
2022/10/25 08:37:02;;;;;;;7.63;2.63;;;21.50;99.90;;;;;;4973704;28;20172;-71
2022/10/25 08:39:27;;;;;;;6.82;3.05;;;21.80;99.90;;;;;;4973541;28;20179;-72
2022/10/25 08:41:58;;;;;;;9.57;3.15;;;22.80;99.90;;;;;;4973263;28;20180;-72
2022/10/25 08:44:27;;;;;;;8.18;3.47;;;22.80;99.90;;;;;;4973716;28;20226;-71
2022/10/25 08:47:04;;;;;;;9.73;2.65;;;22.90;99.90;;;;;;4973679;28;20168;-71
2022/10/25 08:49:51;;;;;;;8.25;3.05;;;22.70;99.90;;;;;;4972976;28;20222;-71
2022/10/25 08:52:57;;;;;;;6.95;2.97;;;22.90;99.90;;;;;;4973657;28;20168;-70
2022/10/25 08:55:35;;;;;;;6.68;2.70;;;23.30;99.90;;;;;;4951127;29;20177;-71
2022/10/25 08:58:04;;;;;;;6.22;2.72;;;24.10;98.50;;;;;;4951516;28;20188;-71
2022/10/25 09:00:38;;;;;;;9.15;3.53;;;24.40;98.50;;;;;;4951639;29;20221;-71
2022/10/25 09:03:04;;;;;;;6.75;3.22;;;24.70;96.90;;;;;;4951756;28;20180;-71
2022/10/25 09:05:41;;;;;;;6.32;2.30;;;24.40;97.40;;;;;;4951354;29;20180;-72
2022/10/25 09:08:28;;;;;;;9.45;3.03;;;23.50;98.00;;;;;;4952243;29;20197;-71
2022/10/25 09:11:08;;;;;;;7.45;2.85;;;22.80;99.90;;;;;;4950851;28;20231;-72
2022/10/25 09:13:45;;;;;;;6.90;2.80;;;22.50;99.90;;;;;;4955503;28;20176;-72
2022/10/25 09:16:34;;;;;;;8.55;2.92;;;22.20;99.90;;;;;;4955830;28;20180;-71
2022/10/25 09:19:06;;;;;;;8.02;2.67;;;22.60;99.90;;;;;;4939223;29;20540;-72
2022/10/25 09:21:56;;;;;;;5.20;2.55;;;22.60;99.90;;;;;;4957399;28;20255;-71
2022/10/25 09:24:28;;;;;;;5.90;2.65;;;22.10;99.90;;;;;;4956777;28;20627;-71
2022/10/25 09:27:10;;;;;;;5.93;2.33;;;21.90;99.90;;;;;;4973183;28;20211;-71
2022/10/25 09:29:43;;;;;;;9.57;2.85;;;21.50;99.90;;;;;;4976726;28;20231;-72
2022/10/25 09:32:31;;;;;;;8.73;2.67;;;21.00;99.90;;;;;;4976526;28;20170;-72
2022/10/25 09:35:00;;;;;;;7.00;2.75;;;20.80;99.90;;;;;;4975957;28;20203;-71
2022/10/25 09:38:05;;;;;;;6.78;3.10;;;20.50;99.90;;;;;;4976329;28;20176;-71
2022/10/25 09:40:46;;;;;;;10.43;3.13;;;20.40;99.90;;;;;;4974757;28;20194;-71
2022/10/25 09:43:17;;;;;;;7.10;2.90;;;19.90;99.90;;;;;;4995090;28;20172;-70
2022/10/25 09:45:45;;;;;;;7.75;3.10;;;19.90;99.90;;;;;;4995816;28;20182;-70
2022/10/25 09:48:27;;;;;;;9.05;3.00;;;20.00;99.90;;;;;;4995779;28;20230;-72
2022/10/25 09:50:58;;;;;;;9.80;3.17;;;20.10;99.90;;;;;;4995804;28;20219;-71
2022/10/25 09:53:23;;;;;;;7.28;2.83;;;20.40;99.90;;;;;;4995225;28;20171;-71
2022/10/25 09:56:06;;;;;;;8.13;2.80;;;20.90;99.90;;;;;;4994651;28;20171;-72
2022/10/25 09:58:34;;;;;;;8.43;2.60;;;20.90;99.90;;;;;;4995152;28;20171;-72
2022/10/25 10:01:24;;;;;;;5.35;2.63;;;20.40;99.90;;;;;;4995036;28;20175;-71
2022/10/25 10:03:50;;;;;;;8.18;2.53;;;20.70;99.90;;;;;;4994932;28;20187;-71
2022/10/25 10:06:22;;;;;;;6.50;2.35;;;21.40;99.90;;;;;;4995582;28;20237;-70
2022/10/25 10:09:01;;;;;;;6.07;2.58;;;21.20;99.90;;;;;;4995173;28;20234;-71
2022/10/25 10:11:28;;;;;;;5.97;2.53;;;21.40;99.90;;;;;;4995439;28;20182;-71
2022/10/25 10:14:00;;;;;;;4.10;2.35;;;21.20;99.90;;;;;;4995553;28;20242;-72
2022/10/25 10:16:35;;;;;;;9.27;3.33;;;20.90;99.90;;;;;;4995187;28;20182;-71
2022/10/25 10:19:12;;;;;;;8.73;2.63;;;20.40;99.90;;;;;;4995349;28;20171;-72
2022/10/25 10:21:46;;;;;;;6.97;2.53;;;20.10;99.90;;;;;;4994787;28;20167;-71
2022/10/25 10:24:31;;;;;;;8.35;2.45;;;20.20;99.90;;;;;;4995138;28;20243;-71
2022/10/25 10:27:04;;;;;;;9.05;2.80;;;20.10;99.90;;;;;;4995378;28;20171;-70
2022/10/25 10:29:33;;;;;;;8.75;2.33;;;20.00;99.90;;;;;;4993798;28;20315;-71
2022/10/25 10:32:24;;;;;;;4.82;2.30;;;20.00;99.90;;;;;;4995027;28;20238;-71
2022/10/25 10:34:55;;;;;;;6.90;1.90;;;19.70;99.90;;;;;;4991858;28;20219;-70
2022/10/25 10:37:29;;;;;;;4.28;1.80;;;19.60;99.90;;;;;;4994855;28;20182;-70
2022/10/25 10:39:57;;;;;;;6.15;2.28;;;19.40;99.90;;;;;;4994049;28;20175;-71
2022/10/25 10:42:43;;;;;;;6.30;2.05;;;19.00;99.90;;;;;;4994776;28;20195;-70
2022/10/25 10:45:15;;;;;;;5.75;2.22;;;19.20;99.90;;;;;;4994976;28;20215;-71
2022/10/25 10:47:49;;;;;;;6.32;1.77;;;19.20;99.90;;;;;;4994496;28;20172;-72
2022/10/25 10:50:21;;;;;;;8.35;2.20;;;19.70;99.90;;;;;;4993911;28;20562;-71
2022/10/25 10:52:52;;;;;;;7.93;2.10;;;19.90;99.90;;;;;;4994204;28;20203;-72
2022/10/25 10:55:30;;;;;;;3.17;1.90;;;20.10;99.90;;;;;;4994719;28;20214;-71
2022/10/25 10:58:10;;;;;;;5.70;1.95;;;19.90;99.90;;;;;;4994185;28;20226;-72
2022/10/25 11:00:35;;;;;;;6.95;2.10;;;19.70;99.90;;;;;;4994468;28;20224;-71
2022/10/25 11:03:01;;;;;;;6.65;1.83;;;19.50;99.90;;;;;;4993258;28;20509;-69
2022/10/25 11:05:29;;;;;;;8.90;2.22;;;19.20;99.90;;;;;;4993628;28;20699;-70
2022/10/25 11:08:02;;;;;;;7.75;2.20;;;19.30;99.90;;;;;;4994427;28;20179;-71
2022/10/25 11:10:33;;;;;;;7.32;1.83;;;19.20;99.90;;;;;;4993753;28;20686;-70
2022/10/25 11:13:14;;;;;;;7.75;1.80;;;19.10;99.90;;;;;;4993801;28;20182;-71
2022/10/25 11:16:07;;;;;;;7.38;1.75;;;20.00;99.90;;;;;;4994498;28;20230;-70
2022/10/25 11:19:00;;;;;;;6.32;1.70;;;20.20;99.90;;;;;;4994063;28;20171;-71
2022/10/25 11:21:38;;;;;;;7.38;1.92;;;19.90;99.90;;;;;;4993422;28;20210;-70
2022/10/25 11:24:28;;;;;;;6.13;2.10;;;20.10;99.90;;;;;;4993726;28;20187;-70
2022/10/25 11:27:21;;;;;;;4.18;1.50;;;20.40;99.90;;;;;;4993402;28;20167;-72
2022/10/25 11:30:02;;;;;;;5.20;1.80;;;21.20;99.90;;;;;;4993734;28;20227;-71
2022/10/25 11:33:00;;;;;;;4.45;1.80;;;21.20;99.90;;;;;;4993289;28;20254;-71
2022/10/25 11:35:42;;;;;;;3.92;1.85;;;21.50;99.90;;;;;;4993154;28;20624;-71
2022/10/25 11:38:37;;;;;;;7.35;1.40;;;22.40;99.90;;;;;;4993235;28;20258;-71
2022/10/25 11:41:37;;;;;;;4.88;1.50;;;22.20;99.90;;;;;;4993312;28;20175;-71
2022/10/25 11:44:33;;;;;;;7.00;2.00;;;22.00;99.90;;;;;;4982388;28;20230;-71
2022/10/25 11:47:14;;;;;;;5.88;1.60;;;22.00;99.90;;;;;;4993585;28;20210;-72
2022/10/25 11:50:10;;;;;;;4.70;1.40;;;22.20;99.90;;;;;;4992853;28;20670;-71
2022/10/25 11:52:44;;;;;;;3.65;1.40;;;22.20;99.90;;;;;;4993128;28;20177;-69
2022/10/25 11:55:19;;;;;;;3.67;1.80;;;21.90;99.90;;;;;;4993698;28;20232;-71
2022/10/25 11:58:25;;;;;;;4.00;1.70;;;22.00;99.90;;;;;;4992742;28;20175;-72
2022/10/25 12:01:18;;;;;;;6.22;1.60;;;21.80;99.90;;;;;;4991904;28;20190;-70
2022/10/25 12:04:27;;;;;;;4.82;1.58;;;21.40;99.90;;;;;;4993303;28;20682;-71
2022/10/25 12:07:14;;;;;;;3.33;1.60;;;20.80;99.90;;;;;;4989744;28;20198;-71
2022/10/25 12:10:01;;;;;;;3.97;1.60;;;20.30;99.90;;;;;;4992651;28;20207;-71
2022/10/25 12:12:41;;;;;;;5.47;1.60;;;20.00;99.90;;;;;;4993260;28;20681;-71
2022/10/25 12:15:16;;;;;;;4.47;1.65;;;20.30;99.90;;;;;;4993023;28;20163;-71
2022/10/25 12:17:42;;;;;;;4.10;1.60;;;20.20;99.90;;;;;;4992569;28;20182;-71
2022/10/25 12:20:17;;;;;;;5.97;1.55;;;20.00;99.90;;;;;;4993072;28;20232;-71
2022/10/25 12:22:45;;;;;;;3.00;1.48;;;19.60;99.90;;;;;;4993043;28;20261;-71
2022/10/25 12:25:31;;;;;;;4.65;1.75;;;19.50;99.90;;;;;;4991551;28;20288;-70
2022/10/25 12:28:13;;;;;;;6.53;1.90;;;19.20;99.90;;;;;;4992601;28;20201;-70
2022/10/25 12:30:40;;;;;;;6.03;1.58;;;19.30;99.90;;;;;;4992960;28;20680;-70
2022/10/25 12:33:19;;;;;;;6.38;1.65;;;19.30;99.90;;;;;;4991913;28;20175;-70
2022/10/25 12:35:51;;;;;;;7.78;1.95;;;19.50;99.90;;;;;;4992636;28;20221;-70
2022/10/25 12:38:37;;;;;;;7.70;1.75;;;19.60;99.90;;;;;;4991795;28;20535;-69
2022/10/25 12:41:18;;;;;;;6.03;2.33;;;19.50;99.90;;;;;;4992247;28;20171;-71
2022/10/25 12:44:14;;;;;;;6.28;1.50;;;19.50;99.90;;;;;;4982642;28;20170;-71
2022/10/25 12:47:20;;;;;;;4.95;1.83;;;19.50;99.90;;;;;;4991915;28;20669;-70
2022/10/25 12:50:01;;;;;;;4.63;1.55;;;19.50;99.90;;;;;;4993638;28;20211;-70
2022/10/25 12:52:57;;;;;;;6.72;1.52;;;19.40;99.90;;;;;;4996854;28;20167;-71
2022/10/25 12:55:50;;;;;;;4.78;1.80;;;19.00;99.90;;;;;;4996484;28;20179;-71
2022/10/25 12:58:28;;;;;;;4.45;1.52;;;19.00;99.90;;;;;;4996478;28;20171;-70
2022/10/25 13:01:21;;;;;;;3.10;1.67;;;19.00;99.90;;;;;;4986196;28;20168;-70
2022/10/25 13:04:01;;;;;;;4.15;2.08;;;19.20;99.90;;;;;;4976411;28;20180;-69
2022/10/25 13:06:33;;;;;;;5.88;1.45;;;19.30;99.90;;;;;;4977437;28;20176;-70
2022/10/25 13:09:28;;;;;;;6.97;1.90;;;19.20;99.90;;;;;;4976819;28;20168;-70
2022/10/25 13:11:58;;;;;;;6.88;2.40;;;19.00;99.90;;;;;;4976988;28;20183;-69
2022/10/25 13:14:34;;;;;;;3.90;2.00;;;19.00;99.90;;;;;;4976595;28;20640;-71